Terminal Aerodrome Forecast
Issued by NWS

Home | Current Version | Previous Version | Text Only | Print | Product List | Glossary On
Versions: 1 2 3 4 5 6 7 8 9 10 11 12 13 14 15
000
FTUS43 KMQT 241700
TAFCMX
TAF
KCMX 241738Z 2418/2518 09007KT P6SM OVC070
     FM241900 11013G18KT P6SM -SNRA OVC035
     FM242200 11016G23KT 4SM -SN OVC015
     FM250000 11016KT 1SM -SN OVC008
     FM250800 11010KT 4SM -SN OVC005
     FM251500 VRB03KT 4SM -SN OVC008=

USA.gov is the U.S. government's official web portal to all federal, state and local government web resources and services.